Terminal Aerodrome Forecast
Issued by NWS

Home | Current Version | Previous Version | Text Only | Print | Product List | Glossary On
Versions: 1 2 3 4 5 6 7 8 9 10 11 12 13 14
000
FTAK31 PANC 282338
TAFAAQ
TAF
PAAQ 282338Z 2900/2924 14015G25KT P6SM BKN070
     FM290700 13011KT P6SM VCSH BKN070
     FM291000 VRB05KT P6SM -SHRA BKN080
     FM292100 14010G20KT P6SM -SHRA BKN060=

USA.gov is the U.S. government's official web portal to all federal, state and local government web resources and services.